Station: Port Pirie Airport Aws

  Atmospheric Gas Attenuation - ITU Rec 676-11   --------------- db/100km ---------------
Date Time Temp RH % AH g/m3 Dew Point Wind Direction Speed kph Gust kph Barometer mB Rainfall Since 9am 24GHz 47GHz 76GHz 122GHz 134GHz 241GHz
13 08:10 5.4 96 6.7 4.8 17 17 1027.8 0.2 15.9 25.7 36.7 95.8 83.7 285.5
13 08:00 5 96 6.53 4.4 19 20 1027.7 0.2 15.5 25.6 36.1 94.4 81.7 278.7
13 07:50 4.6 96 6.36 4 17 19 1027.7 0.2 15.2 25.4 35.6 92.9 79.8 271.8
13 07:40 3.9 96 6.07 3.3 15 15 1027.5 0.2 14.6 25.1 34.7 90.5 76.5 260.0
13 07:30 3.8 96 6.03 3.2 15 17 1027.4 0.2 14.5 25.0 34.6 90.1 76.0 258.4
13 07:20 3.8 96 6.03 3.2 17 17 1027.3 0.2 14.5 25.0 34.6 90.1 76.0 258.4
13 07:10 4 96 6.11 3.4 17 19 1027.2 0.2 14.7 25.1 34.8 90.8 76.9 261.6
13 07:00 4 96 6.11 3.4 15 19 1027.1 0.2 14.7 25.1 34.8 90.8 76.9 261.6
13 06:50 3.7 96 5.99 3.1 15 15 1027 0.2 14.4 25.0 34.4 89.8 75.5 256.7
13 06:40 3.5 96 5.91 2.9 13 13 1027 0.2 14.3 24.9 34.2 89.1 74.6 253.5
13 06:30 3.5 96 5.91 2.9 9 11 1027 0.2 14.3 24.9 34.2 89.1 74.6 253.5
13 06:20 4 96 6.11 3.4 6 7 1026.8 0.2 14.7 25.1 34.8 90.7 76.9 261.5
13 06:10 3.9 96 6.07 3.3 7 7 1026.7 0.2 14.6 25.1 34.7 90.4 76.4 259.9
13 06:00 3.9 96 6.07 3.3 7 9 1026.7 0.2 14.6 25.1 34.7 90.4 76.4 259.9
13 05:50 4.2 96 6.19 3.6 9 11 1026.6 0.2 14.8 25.2 35.0 91.4 77.8 264.7
13 05:40 4.5 96 6.32 3.9 13 15 1026.6 0 15.1 25.3 35.4 92.5 79.3 269.9
13 05:30 4.6 96 6.36 4 15 17 1026.6 0 15.2 25.3 35.6 92.8 79.7 271.5
13 05:20 4.7 96 6.4 4.1 15 17 1026.6 0 15.3 25.4 35.7 93.2 80.2 273.1
13 05:10 4.8 96 6.44 4.2 15 15 1026.5 0 15.3 25.4 35.8 93.5 80.6 274.7
13 04:50 5.1 96 6.57 4.5 15 15 1026.4 0 15.6 25.6 36.2 94.6 82.1 279.9
13 04:40 5.4 96 6.7 4.8 15 15 1026.4 0 15.9 25.7 36.6 95.7 83.6 285.2
13 04:30 5.7 96 6.84 5.1 13 15 1026.2 0 16.2 25.8 37.1 96.8 85.2 290.9
13 04:20 5.9 96 6.93 5.3 11 13 1026.4 0 16.4 25.9 37.4 97.6 86.2 294.5
13 04:10 6.3 96 7.11 5.7 11 11 1026.3 0 16.7 26.1 37.9 99.2 88.3 301.8
13 04:00 6.4 96 7.16 5.8 13 15 1026.3 0 16.8 26.2 38.1 99.6 88.8 303.8
13 03:50 6.6 96 7.25 6 15 17 1026.3 0 17.0 26.3 38.4 100.4 89.9 307.5
13 03:40 6.8 96 7.35 6.2 9 11 1026.2 0 17.2 26.4 38.7 101.2 91.0 311.5
13 03:30 6.9 95 7.32 6.2 9 13 1026.1 0 17.2 26.3 38.5 100.7 90.5 309.7
13 03:20 7 95 7.36 6.3 7 9 1026.2 0 17.2 26.3 38.6 101.1 90.9 311.2
13 03:10 7.2 95 7.46 6.5 11 13 1026 0 17.4 26.4 39.0 101.9 92.1 315.3
13 03:00 7.4 95 7.56 6.7 13 15 1025.9 0 17.6 26.5 39.3 102.8 93.2 319.3
13 02:50 7.5 95 7.61 6.8 13 17 1025.8 0 17.8 26.6 39.4 103.2 93.8 321.3
13 02:40 7.7 95 7.71 7 17 19 1025.7 0 18.0 26.7 39.8 104.1 94.9 325.4
13 02:30 7.8 95 7.76 7.1 15 19 1025.7 0 18.1 26.8 39.9 104.5 95.5 327.4
13 02:20 8.2 95 7.96 7.4 15 17 1025.8 0 18.5 27.0 40.6 106.2 97.8 335.6
13 02:10 8.3 95 8.01 7.5 13 13 1025.8 0 18.6 27.0 40.7 106.7 98.4 337.6
13 02:00 8.4 95 8.06 7.6 13 15 1025.8 0 18.7 27.1 40.9 107.1 99.0 339.6
13 01:50 8.6 95 8.17 7.8 15 17 1025.9 0 18.9 27.2 41.3 108.1 100.3 344.2
13 01:40 8.6 95 8.17 7.8 15 15 1025.8 0 18.9 27.2 41.3 108.1 100.3 344.2
13 01:30 8.7 95 8.22 7.9 19 20 1025.7 0 19.0 27.3 41.4 108.5 100.8 346.2
13 01:20 8.9 95 8.32 8.1 17 20 1025.6 0 19.2 27.4 41.7 109.4 102.0 350.2
13 01:10 8.9 95 8.32 8.1 20 20 1025.5 0 19.2 27.4 41.7 109.4 102.0 350.1
13 01:00 8.9 95 8.32 8.1 15 20 1025.6 0 19.2 27.4 41.7 109.4 102.0 350.2
13 00:50 8.9 95 8.32 8.1 19 20 1025.5 0 19.2 27.4 41.7 109.4 102.0 350.1
13 00:40 9 95 8.38 8.2 19 20 1025.5 0 19.3 27.4 41.9 109.9 102.7 352.7
13 00:30 9.1 95 8.43 8.3 13 17 1025.5 0 19.4 27.5 42.1 110.3 103.2 354.7
13 00:20 9.2 95 8.49 8.4 15 17 1025.5 0 19.6 27.6 42.3 110.9 104.0 357.2
13 00:10 8.9 94 8.24 8 13 13 1025.6 0 19.0 27.2 41.4 108.5 100.8 346.2
13 00:00 8.7 94 8.13 7.8 11 13 1025.7 0 18.8 27.1 41.0 107.5 99.6 341.7
12 23:50 8.6 94 8.08 7.7 11 13 1025.6 0 18.7 27.1 40.9 107.0 99.0 339.7
12 23:40 8.1 94 7.82 7.2 13 15 1025.6 0 18.2 26.8 40.0 104.8 96.0 329.1
12 23:30 7.7 94 7.63 6.8 11 13 1025.5 0 17.8 26.6 39.4 103.1 93.8 321.4
12 23:20 7.3 94 7.43 6.4 11 13 1025.5 0 17.4 26.3 38.8 101.4 91.5 313.3
12 23:10 5.5 94 6.61 4.6 11 11 1025.5 0 15.7 25.5 36.2 94.4 82.1 280.2
12 23:00 5.1 93 6.37 4.1 7 9 1025.6 0 15.2 25.2 35.3 92.2 79.3 270.1
12 22:50 5.5 93 6.54 4.5 9 9 1025.6 0 15.5 25.4 35.9 93.7 81.2 276.9
12 22:40 5.9 93 6.71 4.9 7 7 1025.5 0 15.9 25.5 36.4 95.1 83.1 283.6
12 22:30 6.6 93 7.02 5.6 7 7 1025.4 0 16.5 25.8 37.4 97.7 86.6 296.0
12 22:20 6.6 93 7.02 5.6 6 7 1025.3 0 16.5 25.8 37.4 97.7 86.6 296.0
12 22:10 7.3 93 7.35 6.2 6 7 1025.3 0 17.2 26.2 38.4 100.5 90.4 309.3
12 22:00 7.3 93 7.35 6.2 7 9 1025.2 0 17.2 26.2 38.4 100.5 90.4 309.3
12 21:50 7.1 93 7.26 6 7 9 1025.1 0 17.0 26.1 38.1 99.7 89.3 305.7
12 21:40 6.7 92 6.99 5.5 13 13 1025 0 16.4 25.7 37.2 97.2 86.0 294.1
12 21:30 7.4 92 7.32 6.2 13 15 1025 0 17.1 26.1 38.2 100.0 89.8 307.4
12 21:20 7.2 92 7.23 6 15 15 1025 0 16.9 26.0 37.9 99.2 88.8 303.8
12 21:10 7.6 92 7.42 6.4 11 13 1025 0 17.3 26.2 38.5 100.8 91.0 311.5
12 21:00 7.8 92 7.51 6.6 13 17 1024.9 0 17.5 26.3 38.8 101.6 92.0 315.0
12 20:50 8.5 92 7.86 7.3 15 17 1024.8 0 18.2 26.7 39.9 104.6 96.0 329.1
12 20:40 8.6 92 7.91 7.4 19 19 1024.8 0 18.3 26.7 40.1 105.0 96.5 331.1
12 20:30 8.3 92 7.76 7.1 15 17 1024.7 0 18.0 26.6 39.6 103.7 94.8 325.1
12 20:20 9 92 8.11 7.8 13 13 1024.6 0 18.8 26.9 40.7 106.7 98.8 339.1
12 20:10 9.4 92 8.32 8.2 11 11 1024.6 0 19.2 27.2 41.4 108.6 101.2 347.6
12 20:00 9.4 92 8.32 8.2 13 15 1024.5 0 19.2 27.2 41.4 108.5 101.2 347.6
12 19:50 10.1 92 8.7 8.9 11 13 1024.5 0 20.0 27.6 42.7 111.9 105.6 363.1
12 19:40 10.3 92 8.81 9.1 9 9 1024.3 0 20.2 27.7 43.0 112.8 106.9 367.5
12 19:30 10.6 92 8.98 9.4 9 11 1024.2 0 20.6 27.9 43.6 114.3 108.8 374.4
12 19:20 10.5 92 8.92 9.3 9 11 1024.1 0 20.4 27.8 43.4 113.8 108.1 371.9
12 19:10 10.5 92 8.92 9.3 11 11 1024 0 20.4 27.8 43.4 113.8 108.1 371.9
12 19:00 10.6 91 8.88 9.2 13 15 1023.9 0 20.3 27.7 43.1 113.1 107.4 369.4
12 18:50 10.7 91 8.94 9.3 15 17 1023.8 0 20.5 27.8 43.3 113.7 108.1 371.8
12 18:40 10.6 90 8.79 9 17 17 1023.7 0 20.1 27.6 42.7 112.1 106.1 364.9
12 18:30 10.7 90 8.84 9.1 15 19 1023.6 0 20.2 27.6 42.9 112.5 106.7 366.9
12 18:20 11.1 89 8.97 9.4 15 17 1023.5 0 20.5 27.7 43.2 113.4 107.9 371.3
12 18:10 11.5 88 9.09 9.6 19 20 1023.4 0 20.7 27.8 43.5 114.2 109.0 375.2
12 18:00 11.8 87 9.16 9.7 19 20 1023.2 0 20.9 27.8 43.6 114.5 109.5 377.1
12 17:50 12.1 86 9.22 9.8 19 20 1023 0 21.0 27.8 43.7 114.7 109.9 378.5
12 17:40 12.2 86 9.28 9.9 19 20 1022.9 0 21.1 27.9 43.9 115.2 110.6 380.9
12 17:30 12.3 85 9.23 9.9 20 24 1022.8 0 21.0 27.8 43.6 114.5 109.8 378.0
12 17:20 12.3 85 9.23 9.9 20 24 1022.7 0 21.0 27.8 43.6 114.5 109.8 377.9
12 17:10 12.3 85 9.23 9.9 20 22 1022.5 0 21.0 27.7 43.6 114.5 109.7 377.9
12 17:00 12.3 84 9.12 9.7 24 32 1022.4 0 20.8 27.6 43.1 113.2 108.2 372.5
12 16:50 12.5 83 9.13 9.7 24 28 1022.1 0 20.8 27.5 43.1 113.0 108.0 372.0
12 16:40 12.7 82 9.13 9.7 28 32 1022 0 20.8 27.4 42.9 112.7 107.8 371.0
12 16:30 12.8 81 9.07 9.6 28 35 1021.9 0 20.6 27.3 42.6 111.9 106.8 367.6
12 16:20 12.8 80 8.96 9.4 32 35 1021.8 0 20.4 27.1 42.2 110.7 105.3 362.3
12 16:10 12.8 80 8.96 9.4 28 32 1021.8 0 20.4 27.1 42.2 110.7 105.3 362.3
12 16:00 12.7 80 8.91 9.3 28 37 1021.8 0 20.3 27.1 42.0 110.2 104.7 360.4
12 15:50 12.9 79 8.9 9.4 24 26 1021.7 0 20.3 27.0 41.9 109.8 104.3 359.0
12 15:40 13 79 8.96 9.4 24 28 1021.7 0 20.4 27.0 42.1 110.4 105.0 361.3
12 15:30 13 78 8.85 9.3 30 37 1021.7 0 20.2 26.9 41.6 109.1 103.5 356.1

Last Refresh: 13-Jul-2020 08:22:17

Most of the information presented on this site is sourced from the Bureau of Meteorology.  Copyright in all material sourced from the Bureau of Meteorology resides with the Commonwealth of Australia.